createdAt,value
2018-01-10T00:00:48.304Z,99.50
2018-01-10T00:03:15.842Z,99.60
2018-01-10T00:05:43.427Z,99.50
2018-01-10T00:08:10.960Z,99.50
2018-01-10T00:10:38.501Z,99.60
2018-01-10T00:13:06.855Z,99.70
2018-01-10T00:15:34.398Z,99.70
2018-01-10T00:18:01.960Z,99.90
2018-01-10T00:20:29.541Z,99.80
2018-01-10T00:22:57.075Z,99.90
2018-01-10T00:25:25.379Z,99.90
2018-01-10T00:27:53.724Z,99.90
2018-01-10T00:30:21.275Z,99.90
2018-01-10T00:32:48.812Z,99.90
2018-01-10T00:35:17.141Z,99.90
2018-01-10T00:37:44.670Z,99.90
2018-01-10T00:40:12.971Z,99.90
2018-01-10T00:42:40.555Z,99.90
2018-01-10T00:45:08.086Z,99.90
2018-01-10T00:47:36.391Z,99.90
2018-01-10T00:50:04.743Z,99.90
2018-01-10T00:52:32.282Z,99.90
2018-01-10T00:54:59.815Z,99.90
2018-01-10T00:57:28.153Z,99.90
2018-01-10T00:59:55.692Z,99.90
2018-01-10T01:02:23.223Z,99.90
2018-01-10T01:04:50.790Z,99.90
2018-01-10T01:07:18.339Z,99.90
2018-01-10T01:09:45.875Z,99.90
2018-01-10T01:12:13.449Z,99.90
2018-01-10T01:14:40.994Z,99.90
2018-01-10T01:19:40.343Z,99.90
2018-01-10T01:22:08.641Z,99.90
2018-01-10T01:24:36.178Z,99.90
2018-01-10T01:27:03.772Z,99.90
2018-01-10T01:29:32.076Z,99.90
2018-01-10T01:31:59.606Z,99.90
2018-01-10T01:34:27.191Z,99.90
2018-01-10T01:36:54.722Z,99.90
2018-01-10T01:39:22.253Z,99.90
2018-01-10T01:41:49.840Z,99.90
2018-01-10T01:44:17.393Z,99.90
2018-01-10T01:46:45.693Z,99.90
2018-01-10T01:49:13.263Z,99.90
2018-01-10T01:51:40.811Z,99.90
2018-01-10T01:54:09.130Z,99.90
2018-01-10T01:56:36.717Z,99.90
2018-01-10T01:59:04.247Z,99.90
2018-01-10T02:01:32.554Z,99.90
2018-01-10T02:04:00.134Z,99.90
2018-01-10T02:06:27.674Z,99.90
2018-01-10T02:08:55.974Z,99.90
2018-01-10T02:11:24.322Z,99.90
2018-01-10T02:13:51.853Z,99.90
2018-01-10T02:16:19.398Z,99.90
2018-01-10T02:18:47.740Z,99.90
2018-01-10T02:21:15.279Z,99.90
2018-01-10T02:23:42.815Z,99.90
2018-01-10T02:26:10.378Z,99.90
2018-01-10T02:28:37.919Z,99.90
2018-01-10T02:31:05.454Z,99.90
2018-01-10T02:33:33.031Z,99.90
2018-01-10T02:36:00.566Z,99.90
2018-01-10T02:38:28.092Z,99.90
2018-01-10T02:40:55.667Z,99.90
2018-01-10T02:43:23.199Z,99.90
2018-01-10T02:45:51.494Z,99.90
2018-01-10T02:48:19.076Z,99.90
2018-01-10T02:50:46.606Z,99.90
2018-01-10T02:53:14.153Z,99.90
2018-01-10T02:55:41.739Z,99.90
2018-01-10T02:58:09.271Z,99.90
2018-01-10T03:00:36.798Z,99.90
2018-01-10T03:03:05.646Z,99.90
2018-01-10T03:05:33.211Z,99.90
2018-01-10T03:08:00.744Z,99.90
2018-01-10T03:10:38.291Z,99.90
2018-01-10T03:13:05.823Z,99.90
2018-01-10T03:15:34.145Z,99.90
2018-01-10T03:18:01.727Z,99.90
2018-01-10T03:20:29.263Z,99.90
2018-01-10T03:22:57.561Z,99.90
2018-01-10T03:25:25.137Z,99.90
2018-01-10T03:27:52.666Z,99.90
2018-01-10T03:30:20.286Z,99.90
2018-01-10T03:32:47.863Z,99.90
2018-01-10T03:35:15.386Z,99.90
2018-01-10T03:37:42.927Z,99.90
2018-01-10T03:40:10.503Z,99.90
2018-01-10T03:42:38.038Z,99.90
2018-01-10T03:45:05.610Z,99.90
2018-01-10T03:47:33.182Z,99.90
2018-01-10T03:50:00.722Z,99.90
2018-01-10T03:52:29.027Z,99.90
2018-01-10T03:54:56.602Z,99.90
2018-01-10T03:57:24.141Z,99.90
2018-01-10T03:59:51.677Z,99.90
2018-01-10T04:02:19.254Z,99.90
2018-01-10T04:04:46.791Z,99.90
2018-01-10T04:07:14.331Z,99.90
2018-01-10T04:09:42.673Z,99.90
2018-01-10T04:12:10.207Z,99.90
2018-01-10T04:14:38.498Z,99.90
2018-01-10T04:17:06.851Z,99.90
2018-01-10T04:19:35.162Z,99.90
2018-01-10T04:22:03.477Z,99.90
2018-01-10T04:24:31.051Z,99.90
2018-01-10T04:26:58.589Z,99.90
2018-01-10T04:29:26.118Z,99.90
2018-01-10T04:31:53.691Z,99.90
2018-01-10T04:34:21.389Z,99.90
2018-01-10T04:36:48.920Z,99.90
2018-01-10T04:39:16.685Z,99.90
2018-01-10T04:41:44.561Z,99.90
2018-01-10T04:44:12.567Z,99.90
2018-01-10T04:46:40.146Z,99.90
2018-01-10T04:49:07.683Z,99.90
2018-01-10T04:51:35.515Z,99.90
2018-01-10T04:54:03.362Z,99.90
2018-01-10T04:56:30.919Z,99.90
2018-01-10T04:58:58.487Z,99.90
2018-01-10T05:01:26.158Z,99.90
2018-01-10T05:03:53.734Z,99.90
2018-01-10T05:06:21.270Z,99.90
2018-01-10T05:08:49.030Z,99.90
2018-01-10T05:11:16.607Z,99.90
2018-01-10T05:13:44.144Z,99.90
2018-01-10T05:16:14.254Z,99.90
2018-01-10T05:18:41.911Z,99.90
2018-01-10T05:21:09.492Z,99.90
2018-01-10T05:23:37.070Z,99.90
2018-01-10T05:26:04.603Z,99.90
2018-01-10T05:28:32.138Z,99.90
2018-01-10T05:30:59.799Z,99.90
2018-01-10T05:33:27.337Z,99.90
2018-01-10T05:35:54.946Z,99.90
2018-01-10T05:38:22.522Z,99.90
2018-01-10T05:40:50.084Z,99.90
2018-01-10T05:43:17.618Z,99.90
2018-01-10T05:45:46.065Z,99.90
2018-01-10T05:48:13.598Z,99.90
2018-01-10T05:50:41.127Z,99.90
2018-01-10T05:53:08.705Z,99.90
2018-01-10T05:55:36.245Z,99.90
2018-01-10T05:58:03.778Z,99.90
2018-01-10T06:00:31.350Z,99.90
2018-01-10T06:02:58.881Z,99.90
2018-01-10T06:05:26.447Z,99.90
2018-01-10T06:07:54.023Z,99.90
2018-01-10T06:10:22.336Z,99.90
2018-01-10T06:12:51.080Z,99.90
2018-01-10T06:15:18.724Z,99.90
2018-01-10T06:17:47.207Z,99.90
2018-01-10T06:20:14.775Z,99.90
2018-01-10T06:22:43.107Z,99.90
2018-01-10T06:25:10.743Z,99.90
2018-01-10T06:27:38.283Z,99.90
2018-01-10T06:30:05.873Z,99.90
2018-01-10T06:32:34.178Z,99.90
2018-01-10T06:35:01.714Z,99.90
2018-01-10T06:37:29.295Z,99.90
2018-01-10T06:39:57.642Z,99.90
2018-01-10T06:42:25.188Z,99.90
2018-01-10T06:44:52.801Z,99.90
2018-01-10T06:47:20.352Z,99.90
2018-01-10T06:49:47.883Z,99.90
2018-01-10T06:52:16.223Z,99.90
2018-01-10T06:54:43.764Z,99.90
2018-01-10T06:57:11.296Z,99.90
2018-01-10T06:59:38.937Z,99.90
2018-01-10T07:02:06.440Z,99.90
2018-01-10T07:04:33.996Z,99.90
2018-01-10T07:07:01.596Z,99.90
2018-01-10T07:09:29.899Z,99.90
2018-01-10T07:11:57.459Z,99.90
2018-01-10T07:14:25.822Z,99.90
2018-01-10T07:16:53.370Z,99.90
2018-01-10T07:19:20.899Z,99.90
2018-01-10T07:21:48.491Z,99.90
2018-01-10T07:24:16.024Z,99.90
2018-01-10T07:26:44.341Z,99.90
2018-01-10T07:29:11.930Z,99.90
2018-01-10T07:31:39.478Z,99.90
2018-01-10T07:34:07.016Z,99.90
2018-01-10T07:36:34.591Z,99.90
2018-01-10T07:39:02.887Z,99.90
2018-01-10T07:41:31.203Z,99.90
2018-01-10T07:43:58.792Z,99.90
2018-01-10T07:46:26.319Z,99.90
2018-01-10T07:48:54.619Z,99.90
2018-01-10T07:51:22.209Z,99.90
2018-01-10T07:53:49.739Z,99.90
2018-01-10T07:56:18.107Z,99.90
2018-01-10T07:58:45.688Z,99.90
2018-01-10T08:01:13.219Z,99.90
2018-01-10T08:03:40.746Z,99.90
2018-01-10T08:06:09.080Z,99.90
2018-01-10T08:08:36.611Z,99.90
2018-01-10T08:11:04.913Z,99.90
2018-01-10T08:13:32.484Z,99.90
2018-01-10T08:16:00.030Z,99.90
2018-01-10T08:18:27.562Z,99.90
2018-01-10T08:20:55.158Z,99.90
2018-01-10T08:23:22.694Z,99.90
2018-01-10T08:25:50.223Z,99.90
2018-01-10T08:28:18.560Z,99.90
2018-01-10T08:30:46.087Z,99.90
2018-01-10T08:33:14.388Z,99.90
2018-01-10T08:35:41.959Z,99.90
2018-01-10T08:38:09.499Z,99.90
2018-01-10T08:40:37.037Z,99.90
2018-01-10T08:43:04.614Z,99.90
2018-01-10T08:45:32.190Z,99.90
2018-01-10T08:47:59.719Z,99.90
2018-01-10T08:50:27.292Z,99.90
2018-01-10T08:52:54.835Z,99.90
2018-01-10T08:55:23.130Z,99.90
2018-01-10T08:57:51.474Z,99.90
2018-01-10T09:00:19.001Z,99.90
2018-01-10T09:02:47.542Z,99.90
2018-01-10T09:05:15.191Z,99.90
2018-01-10T09:07:42.726Z,99.90
2018-01-10T09:10:11.090Z,99.90
2018-01-10T09:12:38.661Z,99.90
2018-01-10T09:15:06.260Z,99.90
2018-01-10T09:17:34.555Z,99.90
2018-01-10T09:20:02.891Z,99.90
2018-01-10T09:22:30.482Z,99.90
2018-01-10T09:24:58.005Z,99.90
2018-01-10T09:27:25.588Z,99.90
2018-01-10T09:29:53.114Z,99.90
2018-01-10T09:32:21.409Z,99.90
2018-01-10T09:34:49.742Z,99.90
2018-01-10T09:37:17.275Z,99.90
2018-01-10T09:39:45.593Z,99.90
2018-01-10T09:42:13.191Z,99.90
2018-01-10T09:44:40.732Z,99.90
2018-01-10T09:47:08.270Z,99.90
2018-01-10T09:49:36.611Z,99.90
2018-01-10T09:52:04.155Z,99.90
2018-01-10T09:54:31.710Z,99.90
2018-01-10T09:57:00.743Z,99.90
2018-01-10T09:59:28.351Z,99.90
2018-01-10T10:01:55.960Z,99.90
2018-01-10T10:04:24.337Z,99.90
2018-01-10T10:06:52.626Z,99.90
2018-01-10T10:09:20.926Z,99.90
2018-01-10T10:11:48.943Z,99.90
2018-01-10T10:14:16.479Z,99.90
2018-01-10T10:16:44.780Z,99.90
2018-01-10T10:19:12.382Z,99.90
2018-01-10T10:21:39.925Z,99.90
2018-01-10T10:24:07.459Z,99.90
2018-01-10T10:26:35.394Z,99.90
2018-01-10T10:29:02.923Z,99.90
2018-01-10T10:31:31.219Z,99.90
2018-01-10T10:33:59.572Z,99.90
2018-01-10T10:36:27.127Z,99.90
2018-01-10T10:38:54.678Z,99.90
2018-01-10T10:41:22.262Z,99.90
2018-01-10T10:43:50.131Z,99.90
2018-01-10T10:46:17.670Z,99.90
2018-01-10T10:48:46.007Z,99.90
2018-01-10T10:51:13.588Z,99.90
2018-01-10T10:53:41.116Z,99.90
2018-01-10T10:56:08.729Z,99.90
2018-01-10T10:58:36.300Z,99.90
2018-01-10T11:01:03.851Z,99.90
2018-01-10T11:03:31.425Z,99.70
2018-01-10T11:05:58.955Z,99.10
2018-01-10T11:08:27.254Z,99.10
2018-01-10T11:10:54.827Z,99.10
2018-01-10T11:13:22.455Z,99.70
2018-01-10T11:15:49.983Z,99.90
2018-01-10T11:18:17.611Z,99.90
2018-01-10T11:20:45.144Z,99.30
2018-01-10T11:23:12.710Z,98.90
2018-01-10T11:25:40.274Z,99.10
2018-01-10T11:28:19.809Z,98.90
2018-01-10T11:30:47.379Z,99.10
2018-01-10T11:33:14.910Z,98.90
2018-01-10T11:35:42.447Z,99.10
2018-01-10T11:38:10.016Z,99.10
2018-01-10T11:40:37.545Z,99.50
2018-01-10T11:43:05.843Z,98.80
2018-01-10T11:45:34.183Z,98.90
2018-01-10T11:48:01.715Z,98.90
2018-01-10T11:50:29.239Z,99.20
2018-01-10T11:52:57.612Z,99.40
2018-01-10T11:55:25.137Z,99.40
2018-01-10T11:57:52.695Z,99.90
2018-01-10T12:00:21.034Z,99.90
2018-01-10T12:02:48.560Z,99.90
2018-01-10T12:05:16.849Z,99.90
2018-01-10T12:07:45.187Z,99.90
2018-01-10T12:10:12.717Z,99.90
2018-01-10T12:12:40.251Z,99.90
2018-01-10T12:15:07.833Z,99.90
2018-01-10T12:17:37.132Z,99.90
2018-01-10T12:20:04.658Z,99.90
2018-01-10T12:22:32.246Z,99.90
2018-01-10T12:24:59.778Z,99.90
2018-01-10T12:27:28.074Z,99.90
2018-01-10T12:29:55.646Z,99.90
2018-01-10T12:32:23.191Z,99.90
2018-01-10T12:34:51.494Z,99.90
2018-01-10T12:37:19.861Z,99.90
2018-01-10T12:39:48.904Z,99.90
2018-01-10T12:42:16.463Z,99.90
2018-01-10T12:44:44.803Z,99.90
2018-01-10T12:47:12.343Z,99.90
2018-01-10T12:49:39.867Z,99.90
2018-01-10T12:52:08.231Z,99.90
2018-01-10T12:54:35.781Z,99.90
2018-01-10T12:57:03.319Z,99.90
2018-01-10T12:59:31.664Z,99.90
2018-01-10T13:01:59.196Z,99.90
2018-01-10T13:04:26.729Z,99.90
2018-01-10T13:06:54.316Z,99.90
2018-01-10T13:09:22.620Z,99.90
2018-01-10T13:11:50.150Z,99.90
2018-01-10T13:14:17.729Z,99.90
2018-01-10T13:16:45.275Z,99.90
2018-01-10T13:19:12.821Z,99.90
2018-01-10T13:21:40.414Z,99.90
2018-01-10T13:24:07.967Z,99.90
2018-01-10T13:26:35.519Z,99.90
2018-01-10T13:29:03.107Z,99.90
2018-01-10T13:31:30.675Z,99.90
2018-01-10T13:33:58.219Z,99.90
2018-01-10T13:36:26.565Z,99.90
2018-01-10T13:38:54.090Z,99.90
2018-01-10T13:41:21.661Z,99.90
2018-01-10T13:43:49.234Z,99.90
2018-01-10T13:46:16.871Z,99.90
2018-01-10T13:48:44.395Z,99.90
2018-01-10T13:51:11.997Z,99.90
2018-01-10T13:53:39.536Z,99.90
2018-01-10T13:56:07.088Z,99.90
2018-01-10T13:58:35.451Z,99.90
2018-01-10T14:01:02.994Z,99.90
2018-01-10T14:03:30.528Z,99.90
2018-01-10T14:05:58.104Z,99.90
2018-01-10T14:08:25.638Z,99.90
2018-01-10T14:10:53.172Z,99.90
2018-01-10T14:13:20.741Z,99.90
2018-01-10T14:15:48.290Z,99.90
2018-01-10T14:18:15.838Z,99.90
2018-01-10T14:20:44.209Z,99.90
2018-01-10T14:23:11.755Z,99.90
2018-01-10T14:25:39.287Z,99.90
2018-01-10T14:28:06.882Z,99.90
2018-01-10T14:30:34.421Z,99.90
2018-01-10T14:33:01.958Z,99.90
2018-01-10T14:35:29.543Z,99.90
2018-01-10T14:37:57.114Z,99.90
2018-01-10T14:40:25.417Z,99.90
2018-01-10T14:42:53.774Z,99.90
2018-01-10T14:45:22.067Z,99.90
2018-01-10T14:47:49.603Z,99.90
2018-01-10T14:50:17.218Z,99.90
2018-01-10T14:52:44.746Z,99.90
2018-01-10T14:55:12.279Z,99.90
2018-01-10T14:57:40.614Z,99.90
2018-01-10T15:00:08.143Z,99.90
2018-01-10T15:02:36.443Z,99.90
2018-01-10T15:05:04.024Z,99.90
2018-01-10T15:07:31.580Z,99.90
2018-01-10T15:09:59.146Z,99.90
2018-01-10T15:12:26.719Z,99.90
2018-01-10T15:14:54.251Z,99.90
2018-01-10T15:17:21.784Z,99.90
2018-01-10T15:19:49.362Z,99.90
2018-01-10T15:22:16.895Z,99.90
2018-01-10T15:24:45.192Z,99.90
2018-01-10T15:27:12.779Z,99.90
2018-01-10T15:29:40.323Z,99.90
2018-01-10T15:32:08.635Z,99.90
2018-01-10T15:34:36.210Z,99.90
2018-01-10T15:37:03.744Z,99.90
2018-01-10T15:39:32.055Z,99.90
2018-01-10T15:41:59.631Z,99.90
2018-01-10T15:44:27.163Z,99.90
2018-01-10T15:46:54.708Z,99.90
2018-01-10T15:49:22.278Z,99.90
2018-01-10T15:51:49.827Z,99.90
2018-01-10T15:54:17.350Z,99.90
2018-01-10T15:56:44.922Z,99.90
2018-01-10T15:59:13.227Z,99.90
2018-01-10T16:01:41.531Z,99.90
2018-01-10T16:04:09.125Z,99.90
2018-01-10T16:06:36.703Z,99.90
2018-01-10T16:09:04.259Z,99.90
2018-01-10T16:11:31.842Z,99.90
2018-01-10T16:13:59.379Z,99.90
2018-01-10T16:16:26.951Z,99.90
2018-01-10T16:18:55.324Z,99.90
2018-01-10T16:21:23.636Z,99.90
2018-01-10T16:23:51.206Z,99.90
2018-01-10T16:26:18.789Z,99.90
2018-01-10T16:28:46.363Z,99.90
2018-01-10T16:31:13.955Z,99.90
2018-01-10T16:33:41.539Z,99.90
2018-01-10T16:36:12.415Z,99.90
2018-01-10T16:38:39.991Z,99.90
2018-01-10T16:41:07.728Z,99.90
2018-01-10T16:43:35.274Z,99.90
2018-01-10T16:46:02.819Z,99.90
2018-01-10T16:48:32.858Z,99.90
2018-01-10T16:51:01.160Z,99.90
2018-01-10T16:53:28.734Z,99.90
2018-01-10T16:55:56.409Z,99.90
2018-01-10T16:58:23.948Z,99.90
2018-01-10T17:00:52.315Z,99.90
2018-01-10T17:03:19.903Z,99.90
2018-01-10T17:05:48.224Z,99.90
2018-01-10T17:08:15.779Z,99.90
2018-01-10T17:10:44.219Z,99.90
2018-01-10T17:13:11.752Z,99.90
2018-01-10T17:15:39.295Z,99.90
2018-01-10T17:18:06.884Z,99.90
2018-01-10T17:20:35.228Z,99.90
2018-01-10T17:23:02.866Z,99.90
2018-01-10T17:25:30.450Z,99.90
2018-01-10T17:27:57.983Z,99.90
2018-01-10T17:30:26.299Z,99.90
2018-01-10T17:32:53.875Z,99.90
2018-01-10T17:35:21.419Z,99.90
2018-01-10T17:37:49.723Z,99.90
2018-01-10T17:40:17.321Z,99.90
2018-01-10T17:42:44.856Z,99.90
2018-01-10T17:45:13.146Z,99.90
2018-01-10T17:47:40.846Z,99.90
2018-01-10T17:50:08.510Z,99.90
2018-01-10T17:52:36.178Z,99.90
2018-01-10T17:55:03.963Z,99.90
2018-01-10T17:57:31.738Z,99.90
2018-01-10T17:59:59.570Z,99.90
2018-01-10T18:02:27.167Z,99.90
2018-01-10T18:04:54.833Z,99.90
2018-01-10T18:07:22.620Z,99.90
2018-01-10T18:09:50.497Z,99.90
2018-01-10T18:12:18.195Z,99.90
2018-01-10T18:14:46.015Z,99.90
2018-01-10T18:17:14.366Z,99.90
2018-01-10T18:19:42.044Z,99.90
2018-01-10T18:22:10.380Z,99.90
2018-01-10T18:24:38.803Z,99.90
2018-01-10T18:27:06.346Z,99.90
2018-01-10T18:29:34.945Z,99.90
2018-01-10T18:32:03.412Z,99.90
2018-01-10T18:34:32.118Z,99.90
2018-01-10T18:37:00.044Z,99.90
2018-01-10T18:39:27.675Z,99.90
2018-01-10T18:41:55.203Z,99.90
2018-01-10T18:44:22.750Z,99.90
2018-01-10T18:46:50.410Z,99.90
2018-01-10T18:49:18.703Z,99.90
2018-01-10T18:51:46.262Z,99.90
2018-01-10T18:54:14.623Z,99.90
2018-01-10T18:56:42.231Z,99.90
2018-01-10T18:59:10.537Z,99.90
2018-01-10T19:01:38.129Z,99.90
2018-01-10T19:04:05.665Z,99.90
2018-01-10T19:06:33.211Z,99.90
2018-01-10T19:09:00.795Z,99.90
2018-01-10T19:11:29.112Z,99.90
2018-01-10T19:13:56.983Z,99.90
2018-01-10T19:16:24.597Z,99.90
2018-01-10T19:18:52.938Z,99.90
2018-01-10T19:21:20.629Z,99.90
2018-01-10T19:23:48.288Z,99.90
2018-01-10T19:26:15.818Z,99.90
2018-01-10T19:28:43.409Z,99.90
2018-01-10T19:31:11.767Z,99.90
2018-01-10T19:33:39.322Z,99.90
2018-01-10T19:36:06.851Z,99.90
2018-01-10T19:38:35.203Z,99.90
2018-01-10T19:41:02.756Z,99.90
2018-01-10T19:43:30.306Z,99.90
2018-01-10T19:45:57.878Z,99.90
2018-01-10T19:48:25.419Z,99.90
2018-01-10T19:50:53.715Z,99.90
2018-01-10T19:53:22.056Z,99.90
2018-01-10T19:55:49.589Z,99.90
2018-01-10T19:58:17.150Z,99.90
2018-01-10T20:00:44.737Z,99.90
2018-01-10T20:03:12.271Z,99.90
2018-01-10T20:05:39.808Z,99.90
2018-01-10T20:08:07.403Z,99.90
2018-01-10T20:10:34.956Z,99.90
2018-01-10T20:13:02.490Z,99.90
2018-01-10T20:15:30.067Z,99.90
2018-01-10T20:17:57.635Z,99.90
2018-01-10T20:20:25.209Z,99.90
2018-01-10T20:22:52.819Z,99.90
2018-01-10T20:25:20.352Z,99.90
2018-01-10T20:27:48.042Z,99.90
2018-01-10T20:30:15.630Z,99.90
2018-01-10T20:32:49.403Z,99.90
2018-01-10T20:35:17.005Z,99.90
2018-01-10T20:37:44.536Z,99.90
2018-01-10T20:40:12.860Z,99.90
2018-01-10T20:42:40.452Z,99.90
2018-01-10T20:45:08.059Z,99.90
2018-01-10T20:47:36.362Z,99.90
2018-01-10T20:50:04.050Z,99.90
2018-01-10T20:52:31.596Z,99.90
2018-01-10T20:54:59.981Z,99.90
2018-01-10T20:57:28.343Z,99.90
2018-01-10T20:59:55.878Z,99.90
2018-01-10T21:02:23.416Z,99.90
2018-01-10T21:04:51.794Z,99.90
2018-01-10T21:07:19.352Z,99.90
2018-01-10T21:09:46.922Z,99.90
2018-01-10T21:12:15.275Z,99.90
2018-01-10T21:14:42.834Z,99.90
2018-01-10T21:17:10.379Z,99.90
2018-01-10T21:19:38.724Z,99.90
2018-01-10T21:22:06.275Z,99.90
2018-01-10T21:24:33.804Z,99.90
2018-01-10T21:27:02.177Z,99.90
2018-01-10T21:29:29.722Z,99.90
2018-01-10T21:31:57.256Z,99.90
2018-01-10T21:34:24.874Z,99.90
2018-01-10T21:36:52.431Z,99.90
2018-01-10T21:39:19.980Z,99.90
2018-01-10T21:41:47.568Z,99.90
2018-01-10T21:44:15.106Z,99.90
2018-01-10T21:46:43.410Z,99.90
2018-01-10T21:49:10.994Z,99.90
2018-01-10T21:51:38.544Z,99.90
2018-01-10T21:54:06.076Z,99.90
2018-01-10T21:56:33.650Z,99.90
2018-01-10T21:59:01.208Z,99.90
2018-01-10T22:01:28.779Z,99.90
2018-01-10T22:03:56.364Z,99.90
2018-01-10T22:06:23.897Z,99.90
2018-01-10T22:08:51.478Z,99.90
2018-01-10T22:11:19.313Z,99.90
2018-01-10T22:13:47.177Z,99.90
2018-01-10T22:16:15.483Z,99.90
2018-01-10T22:18:43.076Z,99.90
2018-01-10T22:21:10.613Z,99.90
2018-01-10T22:23:38.928Z,99.90
2018-01-10T22:26:06.511Z,99.90
2018-01-10T22:28:34.063Z,99.90
2018-01-10T22:31:01.610Z,99.90
2018-01-10T22:33:29.963Z,99.90
2018-01-10T22:35:57.500Z,99.90
2018-01-10T22:38:25.040Z,99.90
2018-01-10T22:40:52.696Z,99.90
2018-01-10T22:43:20.251Z,99.90
2018-01-10T22:45:47.848Z,99.90
2018-01-10T22:48:15.462Z,99.90
2018-01-10T22:50:43.011Z,99.90
2018-01-10T22:53:11.310Z,99.90
2018-01-10T22:55:38.894Z,99.90
2018-01-10T22:58:06.460Z,99.90
2018-01-10T23:00:33.998Z,99.90
2018-01-10T23:03:02.362Z,99.90
2018-01-10T23:05:29.903Z,99.90
2018-01-10T23:07:57.435Z,99.90
2018-01-10T23:10:25.812Z,99.90
2018-01-10T23:12:53.374Z,99.90
2018-01-10T23:15:20.906Z,99.90
2018-01-10T23:17:48.495Z,99.90
2018-01-10T23:20:16.022Z,99.90
2018-01-10T23:22:44.428Z,99.90
2018-01-10T23:25:12.023Z,99.90
2018-01-10T23:27:39.560Z,99.90
2018-01-10T23:30:07.117Z,99.90
2018-01-10T23:32:35.470Z,99.90
2018-01-10T23:35:03.012Z,99.90
2018-01-10T23:37:30.555Z,99.90
2018-01-10T23:39:58.896Z,99.90
2018-01-10T23:42:26.491Z,99.90
2018-01-10T23:44:55.544Z,99.90
2018-01-10T23:47:23.132Z,99.90
2018-01-10T23:49:50.671Z,99.90
2018-01-10T23:52:18.239Z,99.90
2018-01-10T23:54:46.603Z,99.90
2018-01-10T23:57:14.141Z,99.90
2018-01-10T23:59:41.690Z,99.90
